Flugplatz Adolf Würth

Prognose für EDTY

vom 22.03. um 17:00 UTC

Zwischen 18:00 UTC und 03:00 UTC

Wind 7 kt aus 120°

Sichtweite 10 km oder mehr

keine signifikanten Wettererscheinungen

keine Wolken


Zwischen 18:00 und 21:00 UTC übergehend zu

variable Windrichtung mit 3 kt

Sichtweite 10 km oder mehr

keine signifikanten Wettererscheinungen

keine Wolken

TAF EDTY 221700Z 2218/2303 12007KT CAVOK BECMG 2218/2221 VRB03KT
Impressum